createdAt,value
2019-04-14T00:01:50.074Z,3.20
2019-04-14T00:04:22.596Z,3.20
2019-04-14T00:06:50.454Z,3.20
2019-04-14T00:09:20.461Z,3.20
2019-04-14T00:11:48.256Z,3.30
2019-04-14T00:14:16.465Z,3.20
2019-04-14T00:16:44.582Z,3.10
2019-04-14T00:19:13.042Z,3.10
2019-04-14T00:21:41.092Z,3.10
2019-04-14T00:24:09.490Z,3.10
2019-04-14T00:26:37.933Z,3.20
2019-04-14T00:29:06.683Z,3.20
2019-04-14T00:31:34.960Z,3.20
2019-04-14T00:34:05.151Z,3.20
2019-04-14T00:36:41.613Z,3.10
2019-04-14T00:39:13.924Z,3.10
2019-04-14T00:41:48.887Z,3.00
2019-04-14T00:44:14.671Z,3.10
2019-04-14T00:46:53.857Z,3.20
2019-04-14T00:49:22.187Z,3.20
2019-04-14T00:51:50.735Z,3.20
2019-04-14T00:54:19.533Z,3.20
2019-04-14T00:56:47.674Z,3.10
2019-04-14T00:59:15.726Z,3.00
2019-04-14T01:01:43.802Z,3.10
2019-04-14T01:04:12.253Z,3.00
2019-04-14T01:06:40.449Z,3.00
2019-04-14T01:09:09.265Z,3.00
2019-04-14T01:11:37.779Z,3.10
2019-04-14T01:14:05.881Z,3.10
2019-04-14T01:16:34.085Z,3.00
2019-04-14T01:19:02.640Z,3.00
2019-04-14T01:21:30.732Z,3.00
2019-04-14T01:23:58.903Z,3.00
2019-04-14T01:26:26.774Z,3.00
2019-04-14T01:29:14.410Z,3.00
2019-04-14T01:31:42.515Z,3.00
2019-04-14T01:34:10.790Z,3.10
2019-04-14T01:36:38.697Z,3.10
2019-04-14T01:39:06.980Z,3.10
2019-04-14T01:41:34.795Z,3.10
2019-04-14T01:44:02.529Z,3.10
2019-04-14T01:46:32.742Z,3.10
2019-04-14T01:49:00.631Z,3.10
2019-04-14T01:51:35.923Z,3.20
2019-04-14T01:54:23.496Z,3.10
2019-04-14T01:56:55.922Z,3.00
2019-04-14T01:59:24.147Z,3.00
2019-04-14T02:01:56.511Z,3.00
2019-04-14T02:04:24.578Z,3.00
2019-04-14T02:06:52.702Z,3.00
2019-04-14T02:09:20.867Z,2.90
2019-04-14T02:11:48.812Z,2.90
2019-04-14T02:14:16.846Z,2.90
2019-04-14T02:16:50.201Z,2.90
2019-04-14T02:19:15.239Z,2.90
2019-04-14T02:21:43.441Z,2.90
2019-04-14T02:24:11.395Z,2.90
2019-04-14T02:26:39.438Z,2.80
2019-04-14T02:29:07.937Z,2.80
2019-04-14T02:32:07.140Z,2.90
2019-04-14T02:34:42.309Z,2.90
2019-04-14T02:37:08.099Z,3.00
2019-04-14T02:39:38.660Z,3.00
2019-04-14T02:42:15.446Z,2.90
2019-04-14T02:44:38.313Z,2.80
2019-04-14T02:49:38.717Z,2.80
2019-04-14T02:51:58.622Z,2.80
2019-04-14T02:54:36.401Z,2.90
2019-04-14T02:59:22.842Z,2.80
2019-04-14T03:02:09.677Z,2.90
2019-04-14T03:07:02.577Z,2.90
2019-04-14T03:09:32.058Z,2.90
2019-04-14T03:11:58.332Z,2.90
2019-04-14T03:14:27.661Z,2.80
2019-04-14T03:17:21.095Z,2.70
2019-04-14T03:19:48.525Z,2.80
2019-04-14T03:37:59.501Z,2.80
2019-04-14T03:40:34.021Z,2.80
2019-04-14T03:43:13.625Z,2.80
2019-04-14T03:45:46.803Z,2.80
2019-04-14T03:50:29.199Z,2.90
2019-04-14T03:53:07.863Z,2.80
2019-04-14T03:55:16.369Z,2.80
2019-04-14T03:57:32.719Z,2.70
2019-04-14T04:00:00.698Z,2.70
2019-04-14T04:02:29.428Z,2.60
2019-04-14T04:04:57.723Z,2.60
2019-04-14T04:07:25.683Z,2.50
2019-04-14T04:09:58.353Z,2.60
2019-04-14T04:12:27.063Z,2.70
2019-04-14T04:14:55.281Z,2.70
2019-04-14T04:17:30.453Z,2.70
2019-04-14T04:20:00.104Z,2.70
2019-04-14T04:22:30.320Z,2.60
2019-04-14T04:25:00.717Z,2.50
2019-04-14T04:27:39.735Z,2.60
2019-04-14T04:30:21.103Z,2.60
2019-04-14T04:32:56.458Z,2.60
2019-04-14T04:35:32.548Z,2.70
2019-04-14T04:38:05.184Z,2.80
2019-04-14T04:40:33.328Z,2.70
2019-04-14T04:43:01.261Z,2.60
2019-04-14T04:45:29.894Z,2.60
2019-04-14T04:47:57.787Z,2.60
2019-04-14T04:50:26.026Z,2.70
2019-04-14T04:52:54.029Z,2.60
2019-04-14T04:55:22.012Z,2.60
2019-04-14T04:57:50.260Z,2.60
2019-04-14T05:00:17.956Z,2.70
2019-04-14T05:02:46.074Z,2.70
2019-04-14T05:05:27.483Z,2.80
2019-04-14T05:07:55.462Z,2.80
2019-04-14T05:10:24.816Z,2.90
2019-04-14T05:12:54.336Z,2.80
2019-04-14T05:15:38.671Z,2.90
2019-04-14T05:18:07.127Z,2.90
2019-04-14T05:20:35.620Z,2.70
2019-04-14T05:23:03.759Z,2.80
2019-04-14T05:25:31.829Z,2.80
2019-04-14T05:28:00.379Z,2.80
2019-04-14T05:30:28.582Z,2.90
2019-04-14T05:32:56.521Z,3.00
2019-04-14T05:35:24.889Z,3.00
2019-04-14T05:37:53.000Z,3.10
2019-04-14T05:40:21.048Z,3.20
2019-04-14T05:42:49.451Z,3.10
2019-04-14T05:45:17.675Z,3.20
2019-04-14T05:47:45.767Z,3.20
2019-04-14T05:50:13.679Z,3.20
2019-04-14T05:52:42.362Z,3.30
2019-04-14T05:55:11.199Z,3.40
2019-04-14T05:57:39.474Z,3.40
2019-04-14T06:00:08.191Z,3.40
2019-04-14T06:02:35.906Z,3.30
2019-04-14T06:05:03.707Z,3.40
2019-04-14T06:07:31.251Z,3.50
2019-04-14T06:09:58.821Z,3.40
2019-04-14T06:12:26.352Z,3.50
2019-04-14T06:14:53.907Z,3.60
2019-04-14T06:17:21.431Z,3.70
2019-04-14T06:19:48.974Z,3.80
2019-04-14T06:22:16.536Z,4.00
2019-04-14T06:24:44.151Z,4.10
2019-04-14T06:27:11.808Z,4.20
2019-04-14T06:29:39.347Z,4.30
2019-04-14T06:32:11.444Z,4.40
2019-04-14T06:34:40.650Z,4.50
2019-04-14T06:37:18.512Z,4.60
2019-04-14T06:39:50.412Z,4.80
2019-04-14T06:42:17.913Z,4.80
2019-04-14T06:44:45.451Z,4.90
2019-04-14T06:47:13.096Z,4.90
2019-04-14T06:49:48.946Z,5.00
2019-04-14T06:52:09.896Z,5.00
2019-04-14T06:54:37.461Z,5.10
2019-04-14T06:57:04.983Z,5.20
2019-04-14T06:59:32.541Z,5.30
2019-04-14T07:02:01.940Z,5.40
2019-04-14T07:04:29.348Z,5.40
2019-04-14T07:06:56.894Z,5.40
2019-04-14T07:09:24.437Z,5.40
2019-04-14T07:11:52.002Z,5.40
2019-04-14T07:14:19.788Z,5.60
2019-04-14T07:16:47.348Z,5.60
2019-04-14T07:19:14.893Z,5.50
2019-04-14T07:21:42.457Z,5.50
2019-04-14T07:24:10.025Z,5.60
2019-04-14T07:26:37.554Z,5.60
2019-04-14T07:29:05.129Z,5.60
2019-04-14T07:31:40.033Z,5.60
2019-04-14T07:34:09.208Z,5.60
2019-04-14T07:36:44.636Z,5.60
2019-04-14T07:39:20.072Z,5.80
2019-04-14T07:41:49.269Z,5.80
2019-04-14T07:44:24.199Z,6.00
2019-04-14T07:46:59.327Z,6.40
2019-04-14T07:49:32.885Z,6.90
2019-04-14T07:52:08.407Z,7.20
2019-04-14T07:54:41.439Z,7.30
2019-04-14T07:57:10.736Z,7.30
2019-04-14T07:59:39.911Z,7.50
2019-04-14T08:02:21.377Z,7.60
2019-04-14T08:04:50.535Z,7.30
2019-04-14T08:07:18.085Z,7.40
2019-04-14T08:09:45.632Z,7.80
2019-04-14T08:12:13.207Z,7.90
2019-04-14T08:14:40.754Z,8.10
2019-04-14T08:17:08.284Z,8.20
2019-04-14T08:19:35.839Z,8.40
2019-04-14T08:22:03.404Z,8.40
2019-04-14T08:24:30.927Z,8.70
2019-04-14T08:26:58.483Z,9.00
2019-04-14T08:29:26.026Z,9.30
2019-04-14T08:31:53.584Z,9.60
2019-04-14T08:34:21.124Z,10.00
2019-04-14T08:36:48.702Z,10.10
2019-04-14T08:39:16.227Z,10.40
2019-04-14T08:41:45.436Z,10.20
2019-04-14T08:44:14.641Z,10.60
2019-04-14T08:47:00.237Z,11.20
2019-04-14T08:49:45.798Z,11.30
2019-04-14T08:52:20.722Z,11.10
2019-04-14T08:54:55.921Z,11.20
2019-04-14T08:57:25.099Z,11.40
2019-04-14T08:59:54.290Z,11.70
2019-04-14T09:02:32.256Z,11.80
2019-04-14T09:05:04.418Z,11.80
2019-04-14T09:07:33.600Z,11.70
2019-04-14T09:10:08.768Z,11.80
2019-04-14T09:12:37.932Z,11.50
2019-04-14T09:15:06.654Z,11.70
2019-04-14T09:17:34.202Z,12.00
2019-04-14T09:20:01.760Z,12.70
2019-04-14T09:22:29.311Z,12.60
2019-04-14T09:24:56.856Z,12.60
2019-04-14T09:27:24.412Z,12.60
2019-04-14T09:29:52.549Z,12.50
2019-04-14T09:32:20.276Z,12.70
2019-04-14T09:34:47.852Z,12.70
2019-04-14T09:37:15.400Z,12.70
2019-04-14T09:39:42.969Z,12.90
2019-04-14T09:42:10.613Z,13.10
2019-04-14T09:44:38.145Z,13.40
2019-04-14T09:47:05.721Z,13.10
2019-04-14T09:49:33.251Z,12.90
2019-04-14T09:52:00.823Z,13.70
2019-04-14T09:54:28.363Z,13.50
2019-04-14T09:56:55.894Z,13.80
2019-04-14T09:59:23.456Z,13.90
2019-04-14T10:01:51.042Z,14.10
2019-04-14T10:04:18.584Z,14.40
2019-04-14T10:06:46.125Z,15.20
2019-04-14T10:09:13.761Z,15.10
2019-04-14T10:11:48.586Z,15.50
2019-04-14T10:14:10.681Z,16.00
2019-04-14T10:16:38.213Z,15.70
2019-04-14T10:19:05.776Z,16.00
2019-04-14T10:21:33.339Z,15.40
2019-04-14T10:24:00.904Z,15.30
2019-04-14T10:26:28.448Z,14.30
2019-04-14T10:28:56.019Z,13.90
2019-04-14T10:31:23.547Z,13.90
2019-04-14T10:33:51.096Z,14.30
2019-04-14T10:36:18.664Z,14.00
2019-04-14T10:38:46.199Z,14.30
2019-04-14T10:41:13.763Z,14.90
2019-04-14T10:43:41.303Z,15.10
2019-04-14T10:46:08.860Z,15.00
2019-04-14T10:48:36.390Z,15.10
2019-04-14T10:51:03.956Z,14.80
2019-04-14T10:53:31.524Z,14.90
2019-04-14T10:55:59.077Z,14.70
2019-04-14T10:58:26.633Z,14.90
2019-04-14T11:00:54.264Z,14.90
2019-04-14T11:03:21.798Z,15.20
2019-04-14T11:05:51.016Z,15.90
2019-04-14T11:08:18.548Z,16.30
2019-04-14T11:10:46.087Z,16.40
2019-04-14T11:13:13.642Z,15.90
2019-04-14T11:15:41.174Z,15.60
2019-04-14T11:18:08.728Z,15.50
2019-04-14T11:20:36.270Z,15.60
2019-04-14T11:23:03.918Z,15.30
2019-04-14T11:25:31.443Z,15.40
2019-04-14T11:27:59.013Z,15.00
2019-04-14T11:30:26.553Z,14.80
2019-04-14T11:32:55.759Z,14.80
2019-04-14T11:35:24.949Z,14.50
2019-04-14T11:38:09.452Z,14.00
2019-04-14T11:40:41.658Z,14.10
2019-04-14T11:43:09.218Z,14.20
2019-04-14T11:45:36.782Z,14.30
2019-04-14T11:48:04.344Z,13.90
2019-04-14T11:50:31.891Z,14.00
2019-04-14T11:52:59.447Z,14.00
2019-04-14T11:55:26.998Z,13.90
2019-04-14T11:57:54.553Z,14.00
2019-04-14T12:00:38.708Z,14.00
2019-04-14T12:03:10.862Z,14.00
2019-04-14T12:05:40.066Z,14.30
2019-04-14T12:08:09.256Z,14.70
2019-04-14T12:10:36.816Z,15.10
2019-04-14T12:13:04.361Z,15.20
2019-04-14T12:15:34.398Z,15.30
2019-04-14T12:18:01.171Z,14.80
2019-04-14T12:20:29.771Z,14.50
2019-04-14T12:22:57.311Z,14.30
2019-04-14T12:25:24.873Z,14.40
2019-04-14T12:27:53.501Z,15.00
2019-04-14T12:30:22.303Z,15.00
2019-04-14T12:32:50.095Z,14.90
2019-04-14T12:35:22.045Z,14.30
2019-04-14T12:37:49.631Z,14.30
2019-04-14T12:40:17.230Z,14.80
2019-04-14T12:42:46.439Z,15.10
2019-04-14T12:45:21.738Z,15.80
2019-04-14T12:47:50.927Z,15.90
2019-04-14T12:50:23.074Z,15.70
2019-04-14T12:52:50.825Z,15.30
2019-04-14T12:55:18.378Z,14.70
2019-04-14T12:57:47.541Z,14.70
2019-04-14T13:00:22.323Z,15.10
2019-04-14T13:02:51.504Z,14.90
2019-04-14T13:05:19.092Z,15.10
2019-04-14T13:07:46.633Z,14.80
2019-04-14T13:10:14.189Z,14.70
2019-04-14T13:12:41.746Z,14.60
2019-04-14T13:15:09.320Z,14.60
2019-04-14T13:17:36.880Z,14.40
2019-04-14T13:20:07.771Z,14.50
2019-04-14T13:22:35.314Z,14.30
2019-04-14T13:25:03.025Z,14.20
2019-04-14T13:27:30.566Z,14.20
2019-04-14T13:29:58.159Z,14.40
2019-04-14T13:32:35.407Z,14.30
2019-04-14T13:34:54.985Z,14.40
2019-04-14T13:37:22.537Z,14.90
2019-04-14T13:39:50.064Z,15.30
2019-04-14T13:42:17.636Z,15.60
2019-04-14T13:44:45.257Z,15.40
2019-04-14T13:47:12.817Z,15.70
2019-04-14T13:49:40.430Z,16.00
2019-04-14T13:52:08.000Z,16.50
2019-04-14T13:54:35.558Z,16.60
2019-04-14T13:57:03.094Z,16.90
2019-04-14T13:59:30.654Z,17.40
2019-04-14T14:01:58.207Z,17.50
2019-04-14T14:04:25.769Z,17.40
2019-04-14T14:06:53.314Z,17.00
2019-04-14T14:09:20.874Z,16.40
2019-04-14T14:12:05.112Z,15.90
2019-04-14T14:14:43.306Z,15.50
2019-04-14T14:17:18.576Z,15.00
2019-04-14T14:19:53.667Z,14.40
2019-04-14T14:22:29.097Z,14.00
2019-04-14T14:25:07.598Z,13.70
2019-04-14T14:27:35.137Z,13.70
2019-04-14T14:30:02.703Z,13.70
2019-04-14T14:32:31.896Z,14.30
2019-04-14T14:34:59.440Z,15.30
2019-04-14T14:37:27.017Z,16.30
2019-04-14T14:39:54.542Z,16.40
2019-04-14T14:42:22.075Z,17.30
2019-04-14T14:44:51.273Z,18.80
2019-04-14T14:47:22.870Z,19.50
2019-04-14T14:49:52.086Z,18.70
2019-04-14T14:52:21.102Z,19.70
2019-04-14T14:54:48.676Z,21.20
2019-04-14T14:57:16.204Z,21.60
2019-04-14T14:59:43.772Z,22.20
2019-04-14T15:02:11.320Z,22.00
2019-04-14T15:04:38.886Z,21.70
2019-04-14T15:07:06.419Z,20.00
2019-04-14T15:09:33.963Z,19.00
2019-04-14T15:12:01.524Z,18.10
2019-04-14T15:14:29.072Z,17.90
2019-04-14T15:16:56.690Z,18.50
2019-04-14T15:19:24.250Z,19.00
2019-04-14T15:21:51.784Z,19.20
2019-04-14T15:24:19.351Z,20.30
2019-04-14T15:26:46.891Z,20.90
2019-04-14T15:29:14.433Z,21.90
2019-04-14T15:31:41.985Z,21.50
2019-04-14T15:34:10.739Z,23.20
2019-04-14T15:36:38.449Z,22.30
2019-04-14T15:39:06.754Z,21.70
2019-04-14T15:41:34.310Z,20.20
2019-04-14T15:44:01.834Z,20.50
2019-04-14T15:46:29.402Z,20.70
2019-04-14T15:48:56.940Z,21.40
2019-04-14T15:51:24.484Z,21.40
2019-04-14T15:53:52.067Z,21.30
2019-04-14T15:56:23.989Z,21.10
2019-04-14T15:58:53.162Z,20.60
2019-04-14T16:01:31.163Z,19.60
2019-04-14T16:04:05.815Z,19.10
2019-04-14T16:06:35.014Z,18.70
2019-04-14T16:09:13.378Z,19.40
2019-04-14T16:11:54.790Z,20.00
2019-04-14T16:14:35.460Z,20.30
2019-04-14T16:17:21.310Z,19.00
2019-04-14T16:19:50.493Z,18.60
2019-04-14T16:22:18.034Z,17.90
2019-04-14T16:24:45.597Z,17.80
2019-04-14T16:27:23.879Z,17.70
2019-04-14T16:30:05.171Z,16.80
2019-04-14T16:32:36.952Z,15.60
2019-04-14T16:35:22.579Z,14.60
2019-04-14T16:37:50.125Z,13.80
2019-04-14T16:40:17.668Z,13.70
2019-04-14T16:42:45.232Z,13.40
2019-04-14T16:45:12.770Z,12.70
2019-04-14T16:47:40.576Z,12.20
2019-04-14T16:50:08.149Z,11.80
2019-04-14T16:52:43.299Z,11.40
2019-04-14T16:55:15.255Z,11.10
2019-04-14T16:58:00.728Z,10.80
2019-04-14T17:00:38.657Z,10.80
2019-04-14T17:03:06.201Z,10.50
2019-04-14T17:05:34.956Z,10.40
2019-04-14T17:08:02.799Z,10.30
2019-04-14T17:10:30.335Z,10.30
2019-04-14T17:12:57.905Z,9.90
2019-04-14T17:15:29.845Z,10.00
2019-04-14T17:18:04.980Z,9.70
2019-04-14T17:20:50.467Z,9.40
2019-04-14T17:23:19.716Z,9.40
2019-04-14T17:25:48.922Z,9.40
2019-04-14T17:28:20.668Z,9.20
2019-04-14T17:30:49.904Z,9.10
2019-04-14T17:33:31.143Z,9.00
2019-04-14T17:36:06.175Z,8.90
2019-04-14T17:38:41.122Z,8.80
2019-04-14T17:41:10.337Z,8.70
2019-04-14T17:43:39.534Z,8.70
2019-04-14T17:46:25.339Z,8.60
2019-04-14T17:49:12.679Z,8.50
2019-04-14T17:51:41.848Z,8.40
2019-04-14T17:54:28.407Z,8.40
2019-04-14T17:57:03.902Z,8.40
2019-04-14T17:59:39.539Z,8.20
2019-04-14T18:02:08.832Z,8.10
2019-04-14T18:04:38.002Z,8.00
2019-04-14T18:07:19.351Z,7.90
2019-04-14T18:09:51.466Z,7.90
2019-04-14T18:12:23.446Z,7.80
2019-04-14T18:15:01.571Z,7.80
2019-04-14T18:17:33.579Z,7.60
2019-04-14T18:20:02.748Z,7.50
2019-04-14T18:22:30.275Z,7.40
2019-04-14T18:24:57.841Z,7.40
2019-04-14T18:27:25.396Z,7.40
2019-04-14T18:30:10.921Z,7.30
2019-04-14T18:32:40.126Z,7.20
2019-04-14T18:35:09.317Z,7.20
2019-04-14T18:37:38.479Z,7.20
2019-04-14T18:40:13.668Z,7.20
2019-04-14T18:42:48.758Z,7.10
2019-04-14T18:45:17.937Z,7.10
2019-04-14T18:47:47.095Z,6.90
2019-04-14T18:50:25.302Z,6.70
2019-04-14T18:53:10.658Z,6.60
2019-04-14T18:55:48.570Z,6.60
2019-04-14T18:58:18.700Z,6.40
2019-04-14T19:00:53.617Z,6.50
2019-04-14T19:03:21.203Z,6.40
2019-04-14T19:05:48.741Z,6.30
2019-04-14T19:08:16.292Z,6.30
2019-04-14T19:10:45.475Z,6.10
2019-04-14T19:13:14.690Z,6.10
2019-04-14T19:15:43.855Z,6.10
2019-04-14T19:18:18.918Z,6.20
2019-04-14T19:20:48.089Z,6.20
2019-04-14T19:23:15.620Z,6.20
2019-04-14T19:25:43.167Z,6.10
2019-04-14T19:28:10.712Z,6.00
2019-04-14T19:30:38.344Z,6.10
2019-04-14T19:33:05.880Z,5.90
2019-04-14T19:35:33.478Z,5.80
2019-04-14T19:38:01.040Z,5.70
2019-04-14T19:40:28.583Z,5.60
2019-04-14T19:42:56.111Z,5.50
2019-04-14T19:45:23.682Z,5.50
2019-04-14T19:47:51.219Z,5.40
2019-04-14T19:50:18.767Z,5.30
2019-04-14T19:52:46.344Z,5.20
2019-04-14T19:55:20.257Z,5.30
2019-04-14T19:57:43.148Z,5.30
2019-04-14T20:00:10.717Z,5.20
2019-04-14T20:02:38.247Z,5.20
2019-04-14T20:05:06.255Z,5.20
2019-04-14T20:07:33.819Z,5.10
2019-04-14T20:10:01.362Z,5.10
2019-04-14T20:12:28.890Z,5.10
2019-04-14T20:14:56.465Z,5.10
2019-04-14T20:17:31.611Z,5.10
2019-04-14T20:20:17.378Z,5.10
2019-04-14T20:22:46.591Z,5.10
2019-04-14T20:25:33.529Z,5.10
2019-04-14T20:28:04.580Z,5.10
2019-04-14T20:30:36.848Z,5.10
2019-04-14T20:33:04.410Z,4.90
2019-04-14T20:35:32.220Z,4.90
2019-04-14T20:37:59.758Z,4.80
2019-04-14T20:40:27.324Z,4.70
2019-04-14T20:42:54.855Z,4.50
2019-04-14T20:45:22.383Z,4.30
2019-04-14T20:47:50.113Z,4.30
2019-04-14T20:50:17.707Z,4.40
2019-04-14T20:52:45.245Z,4.30
2019-04-14T20:55:12.811Z,4.30
2019-04-14T20:57:40.472Z,4.30
2019-04-14T21:00:08.136Z,4.30
2019-04-14T21:02:40.243Z,4.40
2019-04-14T21:05:25.959Z,4.60
2019-04-14T21:08:11.472Z,4.40
2019-04-14T21:10:57.053Z,4.20
2019-04-14T21:13:26.245Z,4.10
2019-04-14T21:16:12.463Z,4.20
2019-04-14T21:18:41.208Z,4.30
2019-04-14T21:21:10.406Z,4.20
2019-04-14T21:23:48.841Z,4.20
2019-04-14T21:26:32.894Z,4.00
2019-04-14T21:29:07.752Z,3.90
2019-04-14T21:31:39.418Z,3.80
2019-04-14T21:34:08.605Z,3.70
2019-04-14T21:36:53.146Z,3.70
2019-04-14T21:39:40.384Z,3.90
2019-04-14T21:42:07.238Z,3.80
2019-04-14T21:44:34.762Z,3.70
2019-04-14T21:47:02.322Z,3.50
2019-04-14T21:49:29.882Z,3.30
2019-04-14T21:51:59.051Z,3.20
2019-04-14T21:54:26.599Z,3.20
2019-04-14T21:57:10.554Z,3.10
2019-04-14T21:59:56.382Z,3.30
2019-04-14T22:02:41.927Z,3.10
2019-04-14T22:05:20.411Z,3.20
2019-04-14T22:08:05.617Z,3.10
2019-04-14T22:10:34.782Z,3.00
2019-04-14T22:13:02.321Z,3.10
2019-04-14T22:15:29.896Z,3.20
2019-04-14T22:17:57.419Z,3.10
2019-04-14T22:20:24.950Z,3.00
2019-04-14T22:22:52.513Z,2.90
2019-04-14T22:25:20.038Z,2.80
2019-04-14T22:27:47.580Z,2.80
2019-04-14T22:30:15.146Z,2.80
2019-04-14T22:32:42.716Z,2.90
2019-04-14T22:35:10.258Z,3.10
2019-04-14T22:37:37.799Z,3.10
2019-04-14T22:40:05.349Z,2.90
2019-04-14T22:42:32.874Z,2.80
2019-04-14T22:45:00.454Z,2.60
2019-04-14T22:47:27.982Z,2.80
2019-04-14T22:49:55.536Z,2.90
2019-04-14T22:52:23.093Z,2.90
2019-04-14T22:54:50.622Z,2.90
2019-04-14T22:57:18.164Z,2.80
2019-04-14T22:59:45.737Z,2.70
2019-04-14T23:02:29.931Z,2.60
2019-04-14T23:05:08.191Z,2.70
2019-04-14T23:07:52.744Z,2.80
2019-04-14T23:10:40.050Z,2.60
2019-04-14T23:13:09.225Z,2.80
2019-04-14T23:15:56.590Z,2.50
2019-04-14T23:18:28.562Z,2.60
2019-04-14T23:21:00.495Z,2.50
2019-04-14T23:23:41.440Z,2.40
2019-04-14T23:26:08.982Z,2.30
2019-04-14T23:28:36.554Z,2.30
2019-04-14T23:31:04.079Z,2.40
2019-04-14T23:33:31.631Z,2.60
2019-04-14T23:35:59.189Z,2.60
2019-04-14T23:38:26.809Z,2.40
2019-04-14T23:40:54.350Z,2.50
2019-04-14T23:43:21.889Z,2.50
2019-04-14T23:45:49.449Z,2.40
2019-04-14T23:48:16.974Z,2.30
2019-04-14T23:50:44.543Z,2.10
2019-04-14T23:53:12.085Z,2.00
2019-04-14T23:55:39.623Z,2.10
2019-04-14T23:58:07.173Z,2.00
